sensor_id;sensor_type;location;lat;lon;timestamp;P1;durP1;ratioP1;P2;durP2;ratioP2
9807;SDS011;4943;52.550;13.462;2023-04-24T00:01:45;313.57;;;155.77;;
9807;SDS011;4943;52.550;13.462;2023-04-24T00:04:14;316.70;;;152.83;;
9807;SDS011;4943;52.550;13.462;2023-04-24T00:06:43;313.53;;;155.10;;
9807;SDS011;4943;52.550;13.462;2023-04-24T00:09:15;314.00;;;152.70;;
9807;SDS011;4943;52.550;13.462;2023-04-24T00:11:43;313.73;;;155.30;;
9807;SDS011;4943;52.550;13.462;2023-04-24T00:14:11;314.60;;;157.47;;
9807;SDS011;4943;52.550;13.462;2023-04-24T00:16:39;312.47;;;152.50;;
9807;SDS011;4943;52.550;13.462;2023-04-24T00:19:09;313.40;;;158.97;;
9807;SDS011;4943;52.550;13.462;2023-04-24T00:21:38;314.63;;;155.43;;
9807;SDS011;4943;52.550;13.462;2023-04-24T00:24:07;315.80;;;157.27;;
9807;SDS011;4943;52.550;13.462;2023-04-24T00:26:36;313.67;;;152.60;;
9807;SDS011;4943;52.550;13.462;2023-04-24T00:29:04;317.53;;;154.90;;
9807;SDS011;4943;52.550;13.462;2023-04-24T00:31:32;314.70;;;153.53;;
9807;SDS011;4943;52.550;13.462;2023-04-24T00:34:01;316.37;;;155.70;;
9807;SDS011;4943;52.550;13.462;2023-04-24T00:36:30;309.90;;;148.77;;
9807;SDS011;4943;52.550;13.462;2023-04-24T00:38:58;312.50;;;152.33;;
9807;SDS011;4943;52.550;13.462;2023-04-24T00:41:27;312.73;;;150.13;;
9807;SDS011;4943;52.550;13.462;2023-04-24T00:43:55;313.80;;;156.23;;
9807;SDS011;4943;52.550;13.462;2023-04-24T00:46:23;311.57;;;149.57;;
9807;SDS011;4943;52.550;13.462;2023-04-24T00:48:51;310.87;;;149.30;;
9807;SDS011;4943;52.550;13.462;2023-04-24T00:51:19;310.93;;;145.17;;
9807;SDS011;4943;52.550;13.462;2023-04-24T00:53:49;311.13;;;151.27;;
9807;SDS011;4943;52.550;13.462;2023-04-24T00:56:17;310.30;;;147.77;;
9807;SDS011;4943;52.550;13.462;2023-04-24T00:58:46;311.10;;;149.97;;
9807;SDS011;4943;52.550;13.462;2023-04-24T01:01:14;308.83;;;149.00;;
9807;SDS011;4943;52.550;13.462;2023-04-24T01:03:43;316.77;;;164.03;;
9807;SDS011;4943;52.550;13.462;2023-04-24T01:06:11;317.20;;;160.53;;
9807;SDS011;4943;52.550;13.462;2023-04-24T01:08:40;312.10;;;152.57;;
9807;SDS011;4943;52.550;13.462;2023-04-24T01:11:10;313.10;;;153.07;;
9807;SDS011;4943;52.550;13.462;2023-04-24T01:13:39;309.80;;;148.17;;
9807;SDS011;4943;52.550;13.462;2023-04-24T01:16:07;309.63;;;147.57;;
9807;SDS011;4943;52.550;13.462;2023-04-24T01:18:35;310.73;;;148.13;;
9807;SDS011;4943;52.550;13.462;2023-04-24T01:21:04;319.17;;;160.43;;
9807;SDS011;4943;52.550;13.462;2023-04-24T01:23:36;311.80;;;152.33;;
9807;SDS011;4943;52.550;13.462;2023-04-24T01:26:04;316.30;;;160.50;;
9807;SDS011;4943;52.550;13.462;2023-04-24T01:28:32;310.63;;;148.13;;
9807;SDS011;4943;52.550;13.462;2023-04-24T01:31:00;311.40;;;153.73;;
9807;SDS011;4943;52.550;13.462;2023-04-24T01:33:28;311.57;;;150.83;;
9807;SDS011;4943;52.550;13.462;2023-04-24T01:35:57;312.43;;;153.07;;
9807;SDS011;4943;52.550;13.462;2023-04-24T01:38:25;311.03;;;149.67;;
9807;SDS011;4943;52.550;13.462;2023-04-24T01:40:54;310.33;;;153.43;;
9807;SDS011;4943;52.550;13.462;2023-04-24T01:43:22;311.37;;;151.80;;
9807;SDS011;4943;52.550;13.462;2023-04-24T01:45:51;309.73;;;151.13;;
9807;SDS011;4943;52.550;13.462;2023-04-24T01:48:21;311.60;;;149.23;;
9807;SDS011;4943;52.550;13.462;2023-04-24T01:50:50;312.40;;;152.90;;
9807;SDS011;4943;52.550;13.462;2023-04-24T01:53:18;310.03;;;148.43;;
9807;SDS011;4943;52.550;13.462;2023-04-24T01:55:46;309.37;;;148.57;;
9807;SDS011;4943;52.550;13.462;2023-04-24T01:58:15;312.27;;;156.27;;
9807;SDS011;4943;52.550;13.462;2023-04-24T02:00:43;312.83;;;157.00;;
9807;SDS011;4943;52.550;13.462;2023-04-24T02:03:11;309.63;;;152.50;;
9807;SDS011;4943;52.550;13.462;2023-04-24T02:05:40;310.63;;;151.53;;
9807;SDS011;4943;52.550;13.462;2023-04-24T02:08:10;310.53;;;152.30;;
9807;SDS011;4943;52.550;13.462;2023-04-24T02:10:38;309.47;;;148.93;;
9807;SDS011;4943;52.550;13.462;2023-04-24T02:13:06;311.90;;;152.73;;
9807;SDS011;4943;52.550;13.462;2023-04-24T02:15:36;312.80;;;149.23;;
9807;SDS011;4943;52.550;13.462;2023-04-24T02:18:04;309.77;;;152.93;;
9807;SDS011;4943;52.550;13.462;2023-04-24T02:20:33;309.57;;;151.27;;
9807;SDS011;4943;52.550;13.462;2023-04-24T02:23:01;309.97;;;146.23;;
9807;SDS011;4943;52.550;13.462;2023-04-24T02:25:29;307.83;;;143.80;;
9807;SDS011;4943;52.550;13.462;2023-04-24T02:27:57;311.23;;;150.03;;
9807;SDS011;4943;52.550;13.462;2023-04-24T02:30:25;306.97;;;145.70;;
9807;SDS011;4943;52.550;13.462;2023-04-24T02:32:55;309.87;;;146.90;;
9807;SDS011;4943;52.550;13.462;2023-04-24T02:35:23;308.23;;;148.33;;
9807;SDS011;4943;52.550;13.462;2023-04-24T02:37:51;308.93;;;147.67;;
9807;SDS011;4943;52.550;13.462;2023-04-24T02:40:19;307.17;;;147.20;;
9807;SDS011;4943;52.550;13.462;2023-04-24T02:42:47;305.90;;;142.43;;
9807;SDS011;4943;52.550;13.462;2023-04-24T02:45:15;309.73;;;154.27;;
9807;SDS011;4943;52.550;13.462;2023-04-24T02:47:43;306.00;;;143.83;;
9807;SDS011;4943;52.550;13.462;2023-04-24T02:50:13;309.30;;;147.53;;
9807;SDS011;4943;52.550;13.462;2023-04-24T02:52:41;307.37;;;147.73;;
9807;SDS011;4943;52.550;13.462;2023-04-24T02:55:09;309.90;;;150.13;;
9807;SDS011;4943;52.550;13.462;2023-04-24T02:57:37;308.67;;;150.37;;
9807;SDS011;4943;52.550;13.462;2023-04-24T03:00:07;312.40;;;153.53;;
9807;SDS011;4943;52.550;13.462;2023-04-24T03:02:36;309.63;;;151.17;;
9807;SDS011;4943;52.550;13.462;2023-04-24T03:05:04;312.00;;;154.40;;
9807;SDS011;4943;52.550;13.462;2023-04-24T03:07:35;310.07;;;152.57;;
9807;SDS011;4943;52.550;13.462;2023-04-24T03:10:03;306.90;;;143.70;;
9807;SDS011;4943;52.550;13.462;2023-04-24T03:12:32;309.83;;;151.70;;
9807;SDS011;4943;52.550;13.462;2023-04-24T03:15:00;309.00;;;150.73;;
9807;SDS011;4943;52.550;13.462;2023-04-24T03:17:28;309.60;;;151.50;;
9807;SDS011;4943;52.550;13.462;2023-04-24T03:19:58;312.00;;;155.40;;
9807;SDS011;4943;52.550;13.462;2023-04-24T03:22:26;311.77;;;155.60;;
9807;SDS011;4943;52.550;13.462;2023-04-24T03:24:55;310.93;;;153.00;;
9807;SDS011;4943;52.550;13.462;2023-04-24T03:27:23;311.63;;;149.67;;
9807;SDS011;4943;52.550;13.462;2023-04-24T03:29:51;311.07;;;153.60;;
9807;SDS011;4943;52.550;13.462;2023-04-24T03:32:21;311.67;;;154.17;;
9807;SDS011;4943;52.550;13.462;2023-04-24T03:34:50;315.20;;;156.63;;
9807;SDS011;4943;52.550;13.462;2023-04-24T03:37:18;311.30;;;151.57;;
9807;SDS011;4943;52.550;13.462;2023-04-24T03:39:46;317.57;;;160.80;;
9807;SDS011;4943;52.550;13.462;2023-04-24T03:42:16;316.33;;;156.63;;
9807;SDS011;4943;52.550;13.462;2023-04-24T03:44:44;312.60;;;154.57;;
9807;SDS011;4943;52.550;13.462;2023-04-24T03:47:12;315.33;;;159.43;;
9807;SDS011;4943;52.550;13.462;2023-04-24T03:49:40;311.70;;;156.63;;
9807;SDS011;4943;52.550;13.462;2023-04-24T03:52:09;310.87;;;156.27;;
9807;SDS011;4943;52.550;13.462;2023-04-24T03:54:37;313.80;;;159.20;;
9807;SDS011;4943;52.550;13.462;2023-04-24T03:57:05;313.37;;;160.53;;
9807;SDS011;4943;52.550;13.462;2023-04-24T03:59:34;315.37;;;156.83;;
9807;SDS011;4943;52.550;13.462;2023-04-24T04:02:02;312.57;;;155.60;;
9807;SDS011;4943;52.550;13.462;2023-04-24T04:04:30;312.17;;;155.47;;
9807;SDS011;4943;52.550;13.462;2023-04-24T04:06:59;315.30;;;162.90;;
9807;SDS011;4943;52.550;13.462;2023-04-24T04:09:29;310.87;;;155.60;;
9807;SDS011;4943;52.550;13.462;2023-04-24T04:11:57;317.00;;;166.47;;
9807;SDS011;4943;52.550;13.462;2023-04-24T04:14:26;313.53;;;157.87;;
9807;SDS011;4943;52.550;13.462;2023-04-24T04:16:56;312.50;;;158.27;;
9807;SDS011;4943;52.550;13.462;2023-04-24T04:19:24;315.67;;;165.67;;
9807;SDS011;4943;52.550;13.462;2023-04-24T04:21:52;311.83;;;157.67;;
9807;SDS011;4943;52.550;13.462;2023-04-24T04:24:22;319.27;;;172.33;;
9807;SDS011;4943;52.550;13.462;2023-04-24T04:26:50;309.53;;;154.63;;
9807;SDS011;4943;52.550;13.462;2023-04-24T04:29:18;316.80;;;162.53;;
9807;SDS011;4943;52.550;13.462;2023-04-24T04:31:47;313.70;;;164.60;;
9807;SDS011;4943;52.550;13.462;2023-04-24T04:34:16;314.37;;;161.77;;
9807;SDS011;4943;52.550;13.462;2023-04-24T04:36:44;312.17;;;159.87;;
9807;SDS011;4943;52.550;13.462;2023-04-24T04:39:12;314.10;;;164.80;;
9807;SDS011;4943;52.550;13.462;2023-04-24T04:41:42;316.17;;;167.87;;
9807;SDS011;4943;52.550;13.462;2023-04-24T04:44:12;315.80;;;167.77;;
9807;SDS011;4943;52.550;13.462;2023-04-24T04:46:41;315.03;;;165.73;;
9807;SDS011;4943;52.550;13.462;2023-04-24T04:49:10;314.33;;;167.47;;
9807;SDS011;4943;52.550;13.462;2023-04-24T04:51:40;316.97;;;167.37;;
9807;SDS011;4943;52.550;13.462;2023-04-24T04:54:08;316.63;;;165.77;;
9807;SDS011;4943;52.550;13.462;2023-04-24T04:56:37;314.80;;;167.90;;
9807;SDS011;4943;52.550;13.462;2023-04-24T04:59:05;316.23;;;171.37;;
9807;SDS011;4943;52.550;13.462;2023-04-24T05:01:33;316.37;;;169.67;;
9807;SDS011;4943;52.550;13.462;2023-04-24T05:04:01;323.00;;;181.10;;
9807;SDS011;4943;52.550;13.462;2023-04-24T05:06:30;322.40;;;180.23;;
9807;SDS011;4943;52.550;13.462;2023-04-24T05:08:59;318.53;;;172.73;;
9807;SDS011;4943;52.550;13.462;2023-04-24T05:11:27;319.50;;;175.80;;
9807;SDS011;4943;52.550;13.462;2023-04-24T05:13:55;321.73;;;182.80;;
9807;SDS011;4943;52.550;13.462;2023-04-24T05:16:23;320.93;;;185.80;;
9807;SDS011;4943;52.550;13.462;2023-04-24T05:18:52;320.17;;;173.57;;
9807;SDS011;4943;52.550;13.462;2023-04-24T05:21:20;330.60;;;193.63;;
9807;SDS011;4943;52.550;13.462;2023-04-24T05:23:48;324.27;;;188.67;;
9807;SDS011;4943;52.550;13.462;2023-04-24T05:26:17;325.37;;;195.77;;
9807;SDS011;4943;52.550;13.462;2023-04-24T05:28:45;321.90;;;183.57;;
9807;SDS011;4943;52.550;13.462;2023-04-24T05:31:13;321.83;;;184.60;;
9807;SDS011;4943;52.550;13.462;2023-04-24T05:33:42;323.70;;;183.80;;
9807;SDS011;4943;52.550;13.462;2023-04-24T05:36:10;323.67;;;186.20;;
9807;SDS011;4943;52.550;13.462;2023-04-24T05:38:38;326.80;;;194.73;;
9807;SDS011;4943;52.550;13.462;2023-04-24T05:41:07;325.70;;;190.60;;
9807;SDS011;4943;52.550;13.462;2023-04-24T05:43:36;324.33;;;190.17;;
9807;SDS011;4943;52.550;13.462;2023-04-24T05:46:04;324.80;;;194.43;;
9807;SDS011;4943;52.550;13.462;2023-04-24T05:48:32;328.20;;;196.50;;
9807;SDS011;4943;52.550;13.462;2023-04-24T05:51:00;331.70;;;197.43;;
9807;SDS011;4943;52.550;13.462;2023-04-24T05:53:29;329.03;;;205.57;;
9807;SDS011;4943;52.550;13.462;2023-04-24T05:55:57;326.97;;;198.40;;
9807;SDS011;4943;52.550;13.462;2023-04-24T05:58:25;328.73;;;204.97;;
9807;SDS011;4943;52.550;13.462;2023-04-24T06:00:54;329.30;;;201.10;;
9807;SDS011;4943;52.550;13.462;2023-04-24T06:03:24;325.30;;;197.13;;
9807;SDS011;4943;52.550;13.462;2023-04-24T06:05:53;325.60;;;196.00;;
9807;SDS011;4943;52.550;13.462;2023-04-24T06:08:21;323.77;;;192.17;;
9807;SDS011;4943;52.550;13.462;2023-04-24T06:10:49;324.87;;;198.07;;
9807;SDS011;4943;52.550;13.462;2023-04-24T06:13:17;328.30;;;201.73;;
9807;SDS011;4943;52.550;13.462;2023-04-24T06:15:45;327.07;;;203.83;;
9807;SDS011;4943;52.550;13.462;2023-04-24T06:18:15;332.87;;;213.87;;
9807;SDS011;4943;52.550;13.462;2023-04-24T06:20:43;331.30;;;208.57;;
9807;SDS011;4943;52.550;13.462;2023-04-24T06:23:12;330.20;;;208.83;;
9807;SDS011;4943;52.550;13.462;2023-04-24T06:25:40;330.87;;;208.70;;
9807;SDS011;4943;52.550;13.462;2023-04-24T06:28:08;334.70;;;206.87;;
9807;SDS011;4943;52.550;13.462;2023-04-24T06:30:36;333.43;;;218.77;;
9807;SDS011;4943;52.550;13.462;2023-04-24T06:33:04;328.27;;;205.00;;
9807;SDS011;4943;52.550;13.462;2023-04-24T06:35:47;329.60;;;207.90;;
9807;SDS011;4943;52.550;13.462;2023-04-24T06:38:17;336.80;;;216.23;;
9807;SDS011;4943;52.550;13.462;2023-04-24T06:40:45;334.30;;;221.57;;
9807;SDS011;4943;52.550;13.462;2023-04-24T06:43:13;332.63;;;216.33;;
9807;SDS011;4943;52.550;13.462;2023-04-24T06:45:41;338.57;;;229.23;;
9807;SDS011;4943;52.550;13.462;2023-04-24T06:48:10;338.27;;;228.33;;
9807;SDS011;4943;52.550;13.462;2023-04-24T06:50:38;341.67;;;235.33;;
9807;SDS011;4943;52.550;13.462;2023-04-24T06:53:08;341.17;;;241.23;;
9807;SDS011;4943;52.550;13.462;2023-04-24T06:55:39;347.97;;;238.60;;
9807;SDS011;4943;52.550;13.462;2023-04-24T06:58:07;349.57;;;258.43;;
9807;SDS011;4943;52.550;13.462;2023-04-24T07:00:36;348.07;;;254.20;;
9807;SDS011;4943;52.550;13.462;2023-04-24T07:03:04;348.57;;;257.80;;
9807;SDS011;4943;52.550;13.462;2023-04-24T07:05:32;347.60;;;259.33;;
9807;SDS011;4943;52.550;13.462;2023-04-24T07:08:01;348.83;;;271.30;;
9807;SDS011;4943;52.550;13.462;2023-04-24T07:10:31;355.97;;;272.80;;
9807;SDS011;4943;52.550;13.462;2023-04-24T07:13:00;345.53;;;256.10;;
9807;SDS011;4943;52.550;13.462;2023-04-24T07:15:28;352.83;;;269.43;;
9807;SDS011;4943;52.550;13.462;2023-04-24T07:17:58;352.37;;;269.43;;
9807;SDS011;4943;52.550;13.462;2023-04-24T07:20:31;355.33;;;286.27;;
9807;SDS011;4943;52.550;13.462;2023-04-24T07:23:00;353.73;;;276.40;;
9807;SDS011;4943;52.550;13.462;2023-04-24T07:25:28;353.00;;;276.73;;
9807;SDS011;4943;52.550;13.462;2023-04-24T07:27:58;349.43;;;264.90;;
9807;SDS011;4943;52.550;13.462;2023-04-24T07:30:27;351.37;;;270.90;;
9807;SDS011;4943;52.550;13.462;2023-04-24T07:32:55;348.53;;;266.33;;
9807;SDS011;4943;52.550;13.462;2023-04-24T07:35:24;349.77;;;267.20;;
9807;SDS011;4943;52.550;13.462;2023-04-24T07:37:52;351.20;;;266.13;;
9807;SDS011;4943;52.550;13.462;2023-04-24T07:40:21;354.43;;;276.33;;
9807;SDS011;4943;52.550;13.462;2023-04-24T07:42:50;354.43;;;284.30;;
9807;SDS011;4943;52.550;13.462;2023-04-24T07:45:19;360.80;;;290.70;;
9807;SDS011;4943;52.550;13.462;2023-04-24T07:47:47;363.47;;;296.87;;
9807;SDS011;4943;52.550;13.462;2023-04-24T07:50:15;366.93;;;299.60;;
9807;SDS011;4943;52.550;13.462;2023-04-24T07:52:44;360.70;;;298.13;;
9807;SDS011;4943;52.550;13.462;2023-04-24T07:55:12;362.40;;;299.77;;
9807;SDS011;4943;52.550;13.462;2023-04-24T07:57:40;363.47;;;304.37;;
9807;SDS011;4943;52.550;13.462;2023-04-24T08:00:09;363.83;;;302.20;;
9807;SDS011;4943;52.550;13.462;2023-04-24T08:02:39;360.10;;;294.80;;
9807;SDS011;4943;52.550;13.462;2023-04-24T08:05:08;365.27;;;300.13;;
9807;SDS011;4943;52.550;13.462;2023-04-24T08:07:36;362.67;;;302.13;;
9807;SDS011;4943;52.550;13.462;2023-04-24T08:10:05;361.80;;;297.93;;
9807;SDS011;4943;52.550;13.462;2023-04-24T08:12:34;363.37;;;305.60;;
9807;SDS011;4943;52.550;13.462;2023-04-24T08:15:02;365.03;;;313.07;;
9807;SDS011;4943;52.550;13.462;2023-04-24T08:17:31;370.50;;;322.77;;
9807;SDS011;4943;52.550;13.462;2023-04-24T08:20:01;372.47;;;329.80;;
9807;SDS011;4943;52.550;13.462;2023-04-24T08:22:30;372.83;;;330.70;;
9807;SDS011;4943;52.550;13.462;2023-04-24T08:24:59;378.00;;;336.40;;
9807;SDS011;4943;52.550;13.462;2023-04-24T08:27:27;387.13;;;345.27;;
9807;SDS011;4943;52.550;13.462;2023-04-24T08:29:57;387.60;;;345.83;;
9807;SDS011;4943;52.550;13.462;2023-04-24T08:32:26;388.23;;;346.20;;
9807;SDS011;4943;52.550;13.462;2023-04-24T08:34:55;386.80;;;345.07;;
9807;SDS011;4943;52.550;13.462;2023-04-24T08:37:25;396.27;;;354.03;;
9807;SDS011;4943;52.550;13.462;2023-04-24T08:39:54;417.07;;;374.23;;
9807;SDS011;4943;52.550;13.462;2023-04-24T08:42:22;417.95;;;374.80;;
9807;SDS011;4943;52.550;13.462;2023-04-24T08:44:50;427.05;;;383.73;;
9807;SDS011;4943;52.550;13.462;2023-04-24T08:47:18;447.42;;;403.58;;
9807;SDS011;4943;52.550;13.462;2023-04-24T08:49:48;445.33;;;401.45;;
9807;SDS011;4943;52.550;13.462;2023-04-24T08:52:17;444.20;;;400.27;;
9807;SDS011;4943;52.550;13.462;2023-04-24T08:54:47;448.13;;;404.48;;
9807;SDS011;4943;52.550;13.462;2023-04-24T08:57:16;461.48;;;417.27;;
9807;SDS011;4943;52.550;13.462;2023-04-24T08:59:44;473.58;;;429.08;;
9807;SDS011;4943;52.550;13.462;2023-04-24T09:02:14;479.98;;;435.20;;
9807;SDS011;4943;52.550;13.462;2023-04-24T09:04:43;480.80;;;436.13;;
9807;SDS011;4943;52.550;13.462;2023-04-24T09:07:13;487.88;;;442.80;;
9807;SDS011;4943;52.550;13.462;2023-04-24T09:09:44;497.08;;;451.48;;
9807;SDS011;4943;52.550;13.462;2023-04-24T09:12:14;486.48;;;441.58;;
9807;SDS011;4943;52.550;13.462;2023-04-24T09:14:42;492.13;;;446.95;;
9807;SDS011;4943;52.550;13.462;2023-04-24T09:17:11;482.88;;;438.00;;
9807;SDS011;4943;52.550;13.462;2023-04-24T09:19:40;513.17;;;467.20;;
9807;SDS011;4943;52.550;13.462;2023-04-24T09:22:09;516.78;;;470.73;;
9807;SDS011;4943;52.550;13.462;2023-04-24T09:24:37;509.08;;;463.60;;
9807;SDS011;4943;52.550;13.462;2023-04-24T09:27:06;525.67;;;479.80;;
9807;SDS011;4943;52.550;13.462;2023-04-24T09:29:38;530.97;;;484.92;;
9807;SDS011;4943;52.550;13.462;2023-04-24T09:35:05;505.63;;;460.53;;
9807;SDS011;4943;52.550;13.462;2023-04-24T09:37:37;487.13;;;442.47;;
9807;SDS011;4943;52.550;13.462;2023-04-24T09:40:08;490.63;;;445.50;;
9807;SDS011;4943;52.550;13.462;2023-04-24T09:42:38;484.00;;;439.47;;
9807;SDS011;4943;52.550;13.462;2023-04-24T09:45:11;472.60;;;428.50;;
9807;SDS011;4943;52.550;13.462;2023-04-24T09:47:41;468.90;;;424.77;;
9807;SDS011;4943;52.550;13.462;2023-04-24T09:50:11;470.80;;;426.63;;
9807;SDS011;4943;52.550;13.462;2023-04-24T09:52:41;480.30;;;435.97;;
9807;SDS011;4943;52.550;13.462;2023-04-24T09:55:13;484.27;;;439.67;;
9807;SDS011;4943;52.550;13.462;2023-04-24T09:57:50;502.27;;;457.20;;
9807;SDS011;4943;52.550;13.462;2023-04-24T10:00:25;502.65;;;457.15;;
9807;SDS011;4943;52.550;13.462;2023-04-24T10:02:55;526.30;;;480.52;;
9807;SDS011;4943;52.550;13.462;2023-04-24T10:05:26;533.50;;;487.52;;
9807;SDS011;4943;52.550;13.462;2023-04-24T10:07:59;559.25;;;512.65;;
9807;SDS011;4943;52.550;13.462;2023-04-24T10:10:29;577.97;;;530.47;;
9807;SDS011;4943;52.550;13.462;2023-04-24T10:12:58;588.85;;;541.45;;
9807;SDS011;4943;52.550;13.462;2023-04-24T10:15:28;582.90;;;534.53;;
9807;SDS011;4943;52.550;13.462;2023-04-24T10:17:57;588.92;;;540.72;;
9807;SDS011;4943;52.550;13.462;2023-04-24T10:20:27;572.65;;;525.35;;
9807;SDS011;4943;52.550;13.462;2023-04-24T10:22:57;578.03;;;530.78;;
9807;SDS011;4943;52.550;13.462;2023-04-24T10:25:27;583.20;;;535.80;;
9807;SDS011;4943;52.550;13.462;2023-04-24T10:27:57;576.95;;;529.67;;
9807;SDS011;4943;52.550;13.462;2023-04-24T10:30:28;568.35;;;521.42;;
9807;SDS011;4943;52.550;13.462;2023-04-24T10:33:01;575.95;;;528.92;;
9807;SDS011;4943;52.550;13.462;2023-04-24T10:35:30;569.13;;;522.42;;
9807;SDS011;4943;52.550;13.462;2023-04-24T10:38:01;569.42;;;522.53;;
9807;SDS011;4943;52.550;13.462;2023-04-24T10:40:33;584.88;;;537.40;;
9807;SDS011;4943;52.550;13.462;2023-04-24T10:43:03;585.30;;;537.72;;
9807;SDS011;4943;52.550;13.462;2023-04-24T10:45:35;575.25;;;528.15;;
9807;SDS011;4943;52.550;13.462;2023-04-24T10:48:04;573.55;;;526.60;;
9807;SDS011;4943;52.550;13.462;2023-04-24T10:50:44;560.55;;;514.00;;
9807;SDS011;4943;52.550;13.462;2023-04-24T10:53:14;555.47;;;509.10;;
9807;SDS011;4943;52.550;13.462;2023-04-24T10:55:45;564.03;;;516.95;;
9807;SDS011;4943;52.550;13.462;2023-04-24T10:58:14;545.72;;;499.60;;
9807;SDS011;4943;52.550;13.462;2023-04-24T11:00:54;546.43;;;499.93;;
9807;SDS011;4943;52.550;13.462;2023-04-24T11:03:25;537.33;;;491.33;;
9807;SDS011;4943;52.550;13.462;2023-04-24T11:05:56;554.08;;;507.52;;
9807;SDS011;4943;52.550;13.462;2023-04-24T11:08:27;535.67;;;489.77;;
9807;SDS011;4943;52.550;13.462;2023-04-24T11:10:58;552.28;;;505.48;;
9807;SDS011;4943;52.550;13.462;2023-04-24T11:16:35;552.30;;;505.67;;
9807;SDS011;4943;52.550;13.462;2023-04-24T11:19:17;554.95;;;508.42;;
9807;SDS011;4943;52.550;13.462;2023-04-24T11:21:48;586.17;;;538.53;;
9807;SDS011;4943;52.550;13.462;2023-04-24T11:24:23;596.38;;;548.42;;
9807;SDS011;4943;52.550;13.462;2023-04-24T11:26:57;608.33;;;559.75;;
9807;SDS011;4943;52.550;13.462;2023-04-24T11:29:44;607.47;;;559.38;;
9807;SDS011;4943;52.550;13.462;2023-04-24T11:32:15;598.47;;;550.78;;
9807;SDS011;4943;52.550;13.462;2023-04-24T11:34:46;604.92;;;556.90;;
9807;SDS011;4943;52.550;13.462;2023-04-24T11:37:15;599.70;;;551.65;;
9807;SDS011;4943;52.550;13.462;2023-04-24T11:39:43;602.60;;;554.63;;
9807;SDS011;4943;52.550;13.462;2023-04-24T11:42:13;601.85;;;553.28;;
9807;SDS011;4943;52.550;13.462;2023-04-24T11:44:42;575.58;;;528.03;;
9807;SDS011;4943;52.550;13.462;2023-04-24T11:47:11;569.35;;;522.53;;
9807;SDS011;4943;52.550;13.462;2023-04-24T11:49:40;556.58;;;510.20;;
9807;SDS011;4943;52.550;13.462;2023-04-24T11:52:08;539.35;;;493.40;;
9807;SDS011;4943;52.550;13.462;2023-04-24T11:54:38;533.67;;;487.77;;
9807;SDS011;4943;52.550;13.462;2023-04-24T11:57:13;507.97;;;462.80;;
9807;SDS011;4943;52.550;13.462;2023-04-24T11:59:41;530.17;;;484.43;;
9807;SDS011;4943;52.550;13.462;2023-04-24T12:02:19;522.33;;;476.93;;
9807;SDS011;4943;52.550;13.462;2023-04-24T12:04:50;520.23;;;474.30;;
9807;SDS011;4943;52.550;13.462;2023-04-24T12:07:19;524.38;;;478.67;;
9807;SDS011;4943;52.550;13.462;2023-04-24T12:09:49;540.45;;;494.30;;
9807;SDS011;4943;52.550;13.462;2023-04-24T12:12:26;533.47;;;487.07;;
9807;SDS011;4943;52.550;13.462;2023-04-24T12:14:55;538.13;;;492.02;;
9807;SDS011;4943;52.550;13.462;2023-04-24T12:17:26;528.60;;;482.80;;
9807;SDS011;4943;52.550;13.462;2023-04-24T12:20:00;536.55;;;490.27;;
9807;SDS011;4943;52.550;13.462;2023-04-24T12:22:42;533.13;;;487.00;;
9807;SDS011;4943;52.550;13.462;2023-04-24T12:25:12;520.77;;;475.20;;
9807;SDS011;4943;52.550;13.462;2023-04-24T12:27:41;521.58;;;475.80;;
9807;SDS011;4943;52.550;13.462;2023-04-24T12:30:10;517.07;;;471.50;;
9807;SDS011;4943;52.550;13.462;2023-04-24T12:32:41;508.80;;;463.17;;
9807;SDS011;4943;52.550;13.462;2023-04-24T12:35:11;498.52;;;453.65;;
9807;SDS011;4943;52.550;13.462;2023-04-24T12:37:41;515.53;;;470.02;;
9807;SDS011;4943;52.550;13.462;2023-04-24T12:40:13;523.03;;;477.33;;
9807;SDS011;4943;52.550;13.462;2023-04-24T12:42:42;510.67;;;465.45;;
9807;SDS011;4943;52.550;13.462;2023-04-24T12:45:12;527.47;;;481.67;;
9807;SDS011;4943;52.550;13.462;2023-04-24T12:47:41;533.80;;;487.90;;
9807;SDS011;4943;52.550;13.462;2023-04-24T12:50:11;533.60;;;487.65;;
9807;SDS011;4943;52.550;13.462;2023-04-24T12:52:41;529.30;;;483.27;;
9807;SDS011;4943;52.550;13.462;2023-04-24T12:55:09;525.78;;;480.10;;
9807;SDS011;4943;52.550;13.462;2023-04-24T12:58:18;536.67;;;490.15;;
9807;SDS011;4943;52.550;13.462;2023-04-24T13:00:47;539.10;;;493.13;;
9807;SDS011;4943;52.550;13.462;2023-04-24T13:03:15;544.20;;;498.10;;
9807;SDS011;4943;52.550;13.462;2023-04-24T13:05:45;553.25;;;506.85;;
9807;SDS011;4943;52.550;13.462;2023-04-24T13:08:13;565.75;;;518.92;;
9807;SDS011;4943;52.550;13.462;2023-04-24T13:10:41;568.63;;;521.53;;
9807;SDS011;4943;52.550;13.462;2023-04-24T13:13:09;570.42;;;523.42;;
9807;SDS011;4943;52.550;13.462;2023-04-24T13:15:37;580.72;;;533.03;;
9807;SDS011;4943;52.550;13.462;2023-04-24T13:18:05;583.20;;;535.70;;
9807;SDS011;4943;52.550;13.462;2023-04-24T13:20:34;598.75;;;550.75;;
9807;SDS011;4943;52.550;13.462;2023-04-24T13:23:04;570.15;;;523.38;;
9807;SDS011;4943;52.550;13.462;2023-04-24T13:25:34;579.20;;;532.13;;
9807;SDS011;4943;52.550;13.462;2023-04-24T13:28:03;595.97;;;548.58;;
9807;SDS011;4943;52.550;13.462;2023-04-24T13:30:31;592.45;;;544.90;;
9807;SDS011;4943;52.550;13.462;2023-04-24T13:32:59;591.72;;;544.15;;
9807;SDS011;4943;52.550;13.462;2023-04-24T13:35:28;598.03;;;550.45;;
9807;SDS011;4943;52.550;13.462;2023-04-24T13:37:57;615.05;;;566.58;;
9807;SDS011;4943;52.550;13.462;2023-04-24T13:40:28;594.83;;;547.42;;
9807;SDS011;4943;52.550;13.462;2023-04-24T13:42:56;606.85;;;559.08;;
9807;SDS011;4943;52.550;13.462;2023-04-24T13:45:25;601.55;;;553.75;;
9807;SDS011;4943;52.550;13.462;2023-04-24T13:47:53;589.38;;;541.90;;
9807;SDS011;4943;52.550;13.462;2023-04-24T13:50:21;570.92;;;524.13;;
9807;SDS011;4943;52.550;13.462;2023-04-24T13:52:49;573.22;;;526.17;;
9807;SDS011;4943;52.550;13.462;2023-04-24T13:55:17;577.55;;;530.38;;
9807;SDS011;4943;52.550;13.462;2023-04-24T13:57:47;558.88;;;511.98;;
9807;SDS011;4943;52.550;13.462;2023-04-24T14:00:16;565.38;;;518.58;;
9807;SDS011;4943;52.550;13.462;2023-04-24T14:02:45;551.90;;;505.52;;
9807;SDS011;4943;52.550;13.462;2023-04-24T14:05:13;553.65;;;507.25;;
9807;SDS011;4943;52.550;13.462;2023-04-24T14:07:42;567.17;;;520.33;;
9807;SDS011;4943;52.550;13.462;2023-04-24T14:10:11;564.97;;;518.08;;
9807;SDS011;4943;52.550;13.462;2023-04-24T14:12:39;565.72;;;518.90;;
9807;SDS011;4943;52.550;13.462;2023-04-24T14:15:09;566.40;;;519.40;;
9807;SDS011;4943;52.550;13.462;2023-04-24T14:17:39;569.58;;;522.60;;
9807;SDS011;4943;52.550;13.462;2023-04-24T14:20:08;564.10;;;517.15;;
9807;SDS011;4943;52.550;13.462;2023-04-24T14:22:36;577.63;;;530.33;;
9807;SDS011;4943;52.550;13.462;2023-04-24T14:25:05;576.33;;;529.00;;
9807;SDS011;4943;52.550;13.462;2023-04-24T14:27:34;587.53;;;540.13;;